Terminal Aerodrome Forecast
Issued by NWS

Home | Current Version | Previous Version | Text Only | Print | Product List | Glossary On
Versions: 1 2 3 4 5 6 7 8 9 10 11 12 13 14 15 16 17 18 19 20 21 22 23 24 25 26 27 28 29
000
FTUS46 KSEW 302057 AAA
TAFSEA
TAF AMD
KSEA 302057Z 3021/0124 VRB03KT P6SM -SHRA SCT025 BKN035 OVC045
     FM010600 17006KT P6SM SCT020 BKN030
     FM011500 17006KT P6SM -RA SCT012 BKN020 OVC035
     FM012000 22006KT P6SM SCT025 BKN035 OVC050=

USA.gov is the U.S. government's official web portal to all federal, state and local government web resources and services.